sensor_id;sensor_type;location;lat;lon;timestamp;P1;durP1;ratioP1;P2;durP2;ratioP2
22715;SDS011;11525;51.152;4.456;2023-02-28T00:00:21;14.93;;;10.02;;
22715;SDS011;11525;51.152;4.456;2023-02-28T00:02:47;14.35;;;10.75;;
22715;SDS011;11525;51.152;4.456;2023-02-28T00:05:15;13.18;;;9.57;;
22715;SDS011;11525;51.152;4.456;2023-02-28T00:07:43;15.55;;;10.27;;
22715;SDS011;11525;51.152;4.456;2023-02-28T00:10:10;13.43;;;9.77;;
22715;SDS011;11525;51.152;4.456;2023-02-28T00:12:38;12.70;;;9.55;;
22715;SDS011;11525;51.152;4.456;2023-02-28T00:15:08;14.05;;;10.38;;
22715;SDS011;11525;51.152;4.456;2023-02-28T00:17:35;11.63;;;9.63;;
22715;SDS011;11525;51.152;4.456;2023-02-28T00:20:02;18.48;;;10.48;;
22715;SDS011;11525;51.152;4.456;2023-02-28T00:22:29;12.90;;;9.98;;
22715;SDS011;11525;51.152;4.456;2023-02-28T00:24:55;13.25;;;9.93;;
22715;SDS011;11525;51.152;4.456;2023-02-28T00:27:21;13.45;;;10.32;;
22715;SDS011;11525;51.152;4.456;2023-02-28T00:29:47;12.40;;;9.27;;
22715;SDS011;11525;51.152;4.456;2023-02-28T00:32:13;14.23;;;10.93;;
22715;SDS011;11525;51.152;4.456;2023-02-28T00:34:39;13.73;;;10.00;;
22715;SDS011;11525;51.152;4.456;2023-02-28T00:37:05;13.90;;;10.65;;
22715;SDS011;11525;51.152;4.456;2023-02-28T00:39:35;16.58;;;10.48;;
22715;SDS011;11525;51.152;4.456;2023-02-28T00:42:02;10.90;;;9.75;;
22715;SDS011;11525;51.152;4.456;2023-02-28T00:44:29;13.77;;;10.75;;
22715;SDS011;11525;51.152;4.456;2023-02-28T00:46:55;14.60;;;10.02;;
22715;SDS011;11525;51.152;4.456;2023-02-28T00:49:22;14.10;;;10.45;;
22715;SDS011;11525;51.152;4.456;2023-02-28T00:51:48;15.00;;;10.55;;
22715;SDS011;11525;51.152;4.456;2023-02-28T00:54:14;18.35;;;11.20;;
22715;SDS011;11525;51.152;4.456;2023-02-28T00:56:41;16.90;;;11.30;;
22715;SDS011;11525;51.152;4.456;2023-02-28T00:59:06;15.77;;;10.35;;
22715;SDS011;11525;51.152;4.456;2023-02-28T01:01:32;15.40;;;10.10;;
22715;SDS011;11525;51.152;4.456;2023-02-28T01:03:58;13.40;;;11.25;;
22715;SDS011;11525;51.152;4.456;2023-02-28T01:06:24;16.00;;;11.32;;
22715;SDS011;11525;51.152;4.456;2023-02-28T01:08:50;13.23;;;10.25;;
22715;SDS011;11525;51.152;4.456;2023-02-28T01:11:18;16.83;;;11.68;;
22715;SDS011;11525;51.152;4.456;2023-02-28T01:13:45;14.80;;;11.25;;
22715;SDS011;11525;51.152;4.456;2023-02-28T01:16:11;14.00;;;10.80;;
22715;SDS011;11525;51.152;4.456;2023-02-28T01:18:37;12.82;;;10.45;;
22715;SDS011;11525;51.152;4.456;2023-02-28T01:21:14;14.00;;;10.45;;
22715;SDS011;11525;51.152;4.456;2023-02-28T01:23:42;13.32;;;10.70;;
22715;SDS011;11525;51.152;4.456;2023-02-28T01:26:09;12.27;;;9.88;;
22715;SDS011;11525;51.152;4.456;2023-02-28T01:28:36;13.70;;;10.95;;
22715;SDS011;11525;51.152;4.456;2023-02-28T01:31:02;13.40;;;10.45;;
22715;SDS011;11525;51.152;4.456;2023-02-28T01:33:28;13.93;;;11.93;;
22715;SDS011;11525;51.152;4.456;2023-02-28T01:35:58;15.88;;;11.32;;
22715;SDS011;11525;51.152;4.456;2023-02-28T01:38:28;13.30;;;11.38;;
22715;SDS011;11525;51.152;4.456;2023-02-28T01:40:54;12.57;;;11.23;;
22715;SDS011;11525;51.152;4.456;2023-02-28T01:43:27;15.63;;;12.32;;
22715;SDS011;11525;51.152;4.456;2023-02-28T01:45:55;15.05;;;10.85;;
22715;SDS011;11525;51.152;4.456;2023-02-28T01:48:27;14.98;;;11.20;;
22715;SDS011;11525;51.152;4.456;2023-02-28T01:50:58;15.40;;;11.15;;
22715;SDS011;11525;51.152;4.456;2023-02-28T01:53:39;18.95;;;11.95;;
22715;SDS011;11525;51.152;4.456;2023-02-28T01:56:09;18.25;;;11.50;;
22715;SDS011;11525;51.152;4.456;2023-02-28T01:58:38;14.95;;;10.77;;
22715;SDS011;11525;51.152;4.456;2023-02-28T02:01:04;15.30;;;11.40;;
22715;SDS011;11525;51.152;4.456;2023-02-28T02:03:30;14.68;;;10.65;;
22715;SDS011;11525;51.152;4.456;2023-02-28T02:05:56;11.55;;;10.35;;
22715;SDS011;11525;51.152;4.456;2023-02-28T02:08:24;13.75;;;10.70;;
22715;SDS011;11525;51.152;4.456;2023-02-28T02:10:56;18.08;;;11.38;;
22715;SDS011;11525;51.152;4.456;2023-02-28T02:13:30;17.85;;;11.10;;
22715;SDS011;11525;51.152;4.456;2023-02-28T02:16:10;15.60;;;11.18;;
22715;SDS011;11525;51.152;4.456;2023-02-28T02:18:53;15.05;;;11.20;;
22715;SDS011;11525;51.152;4.456;2023-02-28T02:26:52;17.10;;;11.73;;
22715;SDS011;11525;51.152;4.456;2023-02-28T02:32:30;14.20;;;11.20;;
22715;SDS011;11525;51.152;4.456;2023-02-28T02:35:24;14.18;;;10.50;;
22715;SDS011;11525;51.152;4.456;2023-02-28T02:38:11;12.57;;;11.18;;
22715;SDS011;11525;51.152;4.456;2023-02-28T02:40:53;13.55;;;11.02;;
22715;SDS011;11525;51.152;4.456;2023-02-28T02:43:29;14.77;;;11.20;;
22715;SDS011;11525;51.152;4.456;2023-02-28T02:49:13;13.80;;;11.07;;
22715;SDS011;11525;51.152;4.456;2023-02-28T02:51:43;15.10;;;10.10;;
22715;SDS011;11525;51.152;4.456;2023-02-28T02:54:13;13.60;;;11.60;;
22715;SDS011;11525;51.152;4.456;2023-02-28T02:56:48;18.60;;;11.70;;
22715;SDS011;11525;51.152;4.456;2023-02-28T02:59:17;17.83;;;11.45;;
22715;SDS011;11525;51.152;4.456;2023-02-28T03:01:48;13.52;;;10.85;;
22715;SDS011;11525;51.152;4.456;2023-02-28T03:04:21;20.67;;;11.90;;
22715;SDS011;11525;51.152;4.456;2023-02-28T03:06:50;18.58;;;11.18;;
22715;SDS011;11525;51.152;4.456;2023-02-28T03:09:20;13.25;;;10.60;;
22715;SDS011;11525;51.152;4.456;2023-02-28T03:11:47;12.77;;;10.63;;
22715;SDS011;11525;51.152;4.456;2023-02-28T03:19:55;17.10;;;11.57;;
22715;SDS011;11525;51.152;4.456;2023-02-28T03:25:55;16.45;;;10.50;;
22715;SDS011;11525;51.152;4.456;2023-02-28T03:31:17;19.13;;;11.07;;
22715;SDS011;11525;51.152;4.456;2023-02-28T03:34:10;16.25;;;11.15;;
22715;SDS011;11525;51.152;4.456;2023-02-28T03:36:48;15.80;;;10.98;;
22715;SDS011;11525;51.152;4.456;2023-02-28T03:39:20;14.75;;;11.52;;
22715;SDS011;11525;51.152;4.456;2023-02-28T03:42:09;14.13;;;10.98;;
22715;SDS011;11525;51.152;4.456;2023-02-28T03:44:42;11.88;;;10.57;;
22715;SDS011;11525;51.152;4.456;2023-02-28T03:47:41;14.25;;;10.32;;
22715;SDS011;11525;51.152;4.456;2023-02-28T03:50:23;15.55;;;10.85;;
22715;SDS011;11525;51.152;4.456;2023-02-28T03:55:26;16.20;;;10.85;;
22715;SDS011;11525;51.152;4.456;2023-02-28T03:57:58;13.98;;;10.95;;
22715;SDS011;11525;51.152;4.456;2023-02-28T04:00:30;19.67;;;10.73;;
22715;SDS011;11525;51.152;4.456;2023-02-28T04:03:02;16.38;;;11.50;;
22715;SDS011;11525;51.152;4.456;2023-02-28T04:05:28;15.73;;;10.63;;
22715;SDS011;11525;51.152;4.456;2023-02-28T04:08:03;14.13;;;10.73;;
22715;SDS011;11525;51.152;4.456;2023-02-28T04:10:30;15.57;;;10.65;;
22715;SDS011;11525;51.152;4.456;2023-02-28T04:12:55;13.00;;;10.52;;
22715;SDS011;11525;51.152;4.456;2023-02-28T04:15:21;16.58;;;11.02;;
22715;SDS011;11525;51.152;4.456;2023-02-28T04:17:48;16.52;;;10.57;;
22715;SDS011;11525;51.152;4.456;2023-02-28T04:20:13;15.73;;;10.65;;
22715;SDS011;11525;51.152;4.456;2023-02-28T04:22:39;12.95;;;10.70;;
22715;SDS011;11525;51.152;4.456;2023-02-28T04:25:05;14.60;;;10.25;;
22715;SDS011;11525;51.152;4.456;2023-02-28T04:27:32;14.15;;;11.05;;
22715;SDS011;11525;51.152;4.456;2023-02-28T04:29:57;17.63;;;10.65;;
22715;SDS011;11525;51.152;4.456;2023-02-28T04:32:23;13.30;;;10.27;;
22715;SDS011;11525;51.152;4.456;2023-02-28T04:34:49;14.52;;;10.65;;
22715;SDS011;11525;51.152;4.456;2023-02-28T04:37:18;12.80;;;10.60;;
22715;SDS011;11525;51.152;4.456;2023-02-28T04:39:44;17.45;;;10.93;;
22715;SDS011;11525;51.152;4.456;2023-02-28T04:42:10;15.68;;;10.45;;
22715;SDS011;11525;51.152;4.456;2023-02-28T04:44:36;16.10;;;10.38;;
22715;SDS011;11525;51.152;4.456;2023-02-28T04:47:02;11.13;;;9.50;;
22715;SDS011;11525;51.152;4.456;2023-02-28T04:49:28;14.85;;;9.98;;
22715;SDS011;11525;51.152;4.456;2023-02-28T04:51:54;14.93;;;10.25;;
22715;SDS011;11525;51.152;4.456;2023-02-28T04:54:20;13.18;;;9.30;;
22715;SDS011;11525;51.152;4.456;2023-02-28T04:56:46;11.80;;;10.23;;
22715;SDS011;11525;51.152;4.456;2023-02-28T04:59:14;14.10;;;10.00;;
22715;SDS011;11525;51.152;4.456;2023-02-28T05:01:40;13.50;;;9.68;;
22715;SDS011;11525;51.152;4.456;2023-02-28T05:04:10;14.07;;;9.85;;
22715;SDS011;11525;51.152;4.456;2023-02-28T05:06:36;13.15;;;10.57;;
22715;SDS011;11525;51.152;4.456;2023-02-28T05:09:04;13.45;;;9.68;;
22715;SDS011;11525;51.152;4.456;2023-02-28T05:11:31;12.93;;;10.23;;
22715;SDS011;11525;51.152;4.456;2023-02-28T05:14:01;10.48;;;9.38;;
22715;SDS011;11525;51.152;4.456;2023-02-28T05:16:28;14.93;;;9.85;;
22715;SDS011;11525;51.152;4.456;2023-02-28T05:18:55;12.88;;;9.57;;
22715;SDS011;11525;51.152;4.456;2023-02-28T05:21:23;13.48;;;10.68;;
22715;SDS011;11525;51.152;4.456;2023-02-28T05:23:49;15.82;;;10.48;;
22715;SDS011;11525;51.152;4.456;2023-02-28T05:26:15;12.32;;;9.63;;
22715;SDS011;11525;51.152;4.456;2023-02-28T05:28:41;11.68;;;8.95;;
22715;SDS011;11525;51.152;4.456;2023-02-28T05:31:07;14.93;;;10.18;;
22715;SDS011;11525;51.152;4.456;2023-02-28T05:33:35;15.07;;;9.55;;
22715;SDS011;11525;51.152;4.456;2023-02-28T05:36:01;14.57;;;9.65;;
22715;SDS011;11525;51.152;4.456;2023-02-28T05:38:28;14.20;;;9.23;;
22715;SDS011;11525;51.152;4.456;2023-02-28T05:40:53;15.32;;;9.15;;
22715;SDS011;11525;51.152;4.456;2023-02-28T05:43:19;11.98;;;8.68;;
22715;SDS011;11525;51.152;4.456;2023-02-28T05:45:45;11.02;;;9.15;;
22715;SDS011;11525;51.152;4.456;2023-02-28T05:48:11;12.63;;;10.18;;
22715;SDS011;11525;51.152;4.456;2023-02-28T05:50:36;24.17;;;10.40;;
22715;SDS011;11525;51.152;4.456;2023-02-28T05:53:02;12.00;;;9.15;;
22715;SDS011;11525;51.152;4.456;2023-02-28T05:55:28;16.42;;;10.40;;
22715;SDS011;11525;51.152;4.456;2023-02-28T05:57:54;12.98;;;9.30;;
22715;SDS011;11525;51.152;4.456;2023-02-28T06:00:20;11.15;;;8.38;;
22715;SDS011;11525;51.152;4.456;2023-02-28T06:02:47;13.05;;;9.38;;
22715;SDS011;11525;51.152;4.456;2023-02-28T06:05:14;14.25;;;9.85;;
22715;SDS011;11525;51.152;4.456;2023-02-28T06:07:42;12.45;;;8.95;;
22715;SDS011;11525;51.152;4.456;2023-02-28T06:10:09;12.95;;;9.75;;
22715;SDS011;11525;51.152;4.456;2023-02-28T06:12:36;10.50;;;8.63;;
22715;SDS011;11525;51.152;4.456;2023-02-28T06:15:02;14.98;;;9.35;;
22715;SDS011;11525;51.152;4.456;2023-02-28T06:17:28;12.45;;;9.65;;
22715;SDS011;11525;51.152;4.456;2023-02-28T06:19:54;11.73;;;8.95;;
22715;SDS011;11525;51.152;4.456;2023-02-28T06:22:20;11.52;;;9.30;;
22715;SDS011;11525;51.152;4.456;2023-02-28T06:24:46;11.05;;;9.20;;
22715;SDS011;11525;51.152;4.456;2023-02-28T06:27:11;15.18;;;10.18;;
22715;SDS011;11525;51.152;4.456;2023-02-28T06:29:37;13.10;;;9.00;;
22715;SDS011;11525;51.152;4.456;2023-02-28T06:32:06;15.18;;;9.93;;
22715;SDS011;11525;51.152;4.456;2023-02-28T06:34:31;13.75;;;10.10;;
22715;SDS011;11525;51.152;4.456;2023-02-28T06:36:59;14.05;;;9.63;;
22715;SDS011;11525;51.152;4.456;2023-02-28T06:39:27;15.65;;;9.68;;
22715;SDS011;11525;51.152;4.456;2023-02-28T06:41:54;12.93;;;9.75;;
22715;SDS011;11525;51.152;4.456;2023-02-28T06:44:19;17.17;;;10.82;;
22715;SDS011;11525;51.152;4.456;2023-02-28T06:46:46;12.23;;;9.45;;
22715;SDS011;11525;51.152;4.456;2023-02-28T06:49:13;15.15;;;9.68;;
22715;SDS011;11525;51.152;4.456;2023-02-28T06:51:42;12.90;;;9.30;;
22715;SDS011;11525;51.152;4.456;2023-02-28T06:54:12;13.55;;;9.90;;
22715;SDS011;11525;51.152;4.456;2023-02-28T06:56:38;16.08;;;9.50;;
22715;SDS011;11525;51.152;4.456;2023-02-28T06:59:04;12.95;;;8.95;;
22715;SDS011;11525;51.152;4.456;2023-02-28T07:01:30;14.93;;;9.82;;
22715;SDS011;11525;51.152;4.456;2023-02-28T07:03:58;10.18;;;8.93;;
22715;SDS011;11525;51.152;4.456;2023-02-28T07:06:25;12.60;;;9.30;;
22715;SDS011;11525;51.152;4.456;2023-02-28T07:08:51;15.43;;;10.10;;
22715;SDS011;11525;51.152;4.456;2023-02-28T07:11:18;16.33;;;9.52;;
22715;SDS011;11525;51.152;4.456;2023-02-28T07:13:47;11.32;;;9.05;;
22715;SDS011;11525;51.152;4.456;2023-02-28T07:16:13;12.40;;;8.85;;
22715;SDS011;11525;51.152;4.456;2023-02-28T07:18:39;17.23;;;9.63;;
22715;SDS011;11525;51.152;4.456;2023-02-28T07:21:09;13.50;;;9.00;;
22715;SDS011;11525;51.152;4.456;2023-02-28T07:23:36;13.07;;;9.70;;
22715;SDS011;11525;51.152;4.456;2023-02-28T07:26:07;11.07;;;8.65;;
22715;SDS011;11525;51.152;4.456;2023-02-28T07:28:36;15.35;;;8.30;;
22715;SDS011;11525;51.152;4.456;2023-02-28T07:31:06;12.93;;;9.43;;
22715;SDS011;11525;51.152;4.456;2023-02-28T07:33:32;13.88;;;8.32;;
22715;SDS011;11525;51.152;4.456;2023-02-28T07:36:06;11.88;;;8.23;;
22715;SDS011;11525;51.152;4.456;2023-02-28T07:38:37;16.60;;;9.05;;
22715;SDS011;11525;51.152;4.456;2023-02-28T07:41:03;13.60;;;8.88;;
22715;SDS011;11525;51.152;4.456;2023-02-28T07:43:29;10.90;;;8.73;;
22715;SDS011;11525;51.152;4.456;2023-02-28T07:46:03;11.55;;;8.52;;
22715;SDS011;11525;51.152;4.456;2023-02-28T07:48:30;12.90;;;8.57;;
22715;SDS011;11525;51.152;4.456;2023-02-28T07:50:56;12.68;;;8.77;;
22715;SDS011;11525;51.152;4.456;2023-02-28T07:53:23;11.38;;;8.13;;
22715;SDS011;11525;51.152;4.456;2023-02-28T07:55:49;11.00;;;7.82;;
22715;SDS011;11525;51.152;4.456;2023-02-28T07:58:14;10.93;;;8.18;;
22715;SDS011;11525;51.152;4.456;2023-02-28T08:00:40;10.10;;;8.45;;
22715;SDS011;11525;51.152;4.456;2023-02-28T08:03:07;10.30;;;8.15;;
22715;SDS011;11525;51.152;4.456;2023-02-28T08:05:40;12.85;;;9.25;;
22715;SDS011;11525;51.152;4.456;2023-02-28T08:08:06;10.13;;;7.22;;
22715;SDS011;11525;51.152;4.456;2023-02-28T08:10:36;9.85;;;7.78;;
22715;SDS011;11525;51.152;4.456;2023-02-28T08:13:02;11.48;;;7.28;;
22715;SDS011;11525;51.152;4.456;2023-02-28T08:15:28;10.20;;;7.55;;
22715;SDS011;11525;51.152;4.456;2023-02-28T08:17:53;9.10;;;7.63;;
22715;SDS011;11525;51.152;4.456;2023-02-28T08:20:21;11.52;;;7.53;;
22715;SDS011;11525;51.152;4.456;2023-02-28T08:22:48;11.10;;;7.35;;
22715;SDS011;11525;51.152;4.456;2023-02-28T08:25:13;8.98;;;7.05;;
22715;SDS011;11525;51.152;4.456;2023-02-28T08:27:40;8.52;;;6.78;;
22715;SDS011;11525;51.152;4.456;2023-02-28T08:30:06;7.80;;;6.63;;
22715;SDS011;11525;51.152;4.456;2023-02-28T08:32:33;11.90;;;7.32;;
22715;SDS011;11525;51.152;4.456;2023-02-28T08:34:59;11.65;;;8.02;;
22715;SDS011;11525;51.152;4.456;2023-02-28T08:37:25;9.00;;;6.97;;
22715;SDS011;11525;51.152;4.456;2023-02-28T08:39:51;11.27;;;6.68;;
22715;SDS011;11525;51.152;4.456;2023-02-28T08:42:16;9.38;;;7.30;;
22715;SDS011;11525;51.152;4.456;2023-02-28T08:44:42;9.20;;;7.28;;
22715;SDS011;11525;51.152;4.456;2023-02-28T08:47:08;10.50;;;6.47;;
22715;SDS011;11525;51.152;4.456;2023-02-28T08:49:34;10.40;;;5.93;;
22715;SDS011;11525;51.152;4.456;2023-02-28T08:51:59;10.40;;;6.38;;
22715;SDS011;11525;51.152;4.456;2023-02-28T08:54:25;9.30;;;6.53;;
22715;SDS011;11525;51.152;4.456;2023-02-28T08:56:51;10.25;;;6.07;;
22715;SDS011;11525;51.152;4.456;2023-02-28T08:59:17;5.88;;;5.03;;
22715;SDS011;11525;51.152;4.456;2023-02-28T09:01:43;6.75;;;5.68;;
22715;SDS011;11525;51.152;4.456;2023-02-28T09:04:09;9.57;;;4.55;;
22715;SDS011;11525;51.152;4.456;2023-02-28T09:06:36;7.63;;;5.13;;
22715;SDS011;11525;51.152;4.456;2023-02-28T09:09:03;7.63;;;4.85;;
22715;SDS011;11525;51.152;4.456;2023-02-28T09:11:31;6.18;;;4.47;;
22715;SDS011;11525;51.152;4.456;2023-02-28T09:13:57;5.68;;;4.53;;
22715;SDS011;11525;51.152;4.456;2023-02-28T09:16:25;7.40;;;4.95;;
22715;SDS011;11525;51.152;4.456;2023-02-28T09:18:51;7.63;;;4.32;;
22715;SDS011;11525;51.152;4.456;2023-02-28T09:21:17;6.63;;;4.30;;
22715;SDS011;11525;51.152;4.456;2023-02-28T09:23:44;5.68;;;4.40;;
22715;SDS011;11525;51.152;4.456;2023-02-28T09:26:19;5.15;;;4.22;;
22715;SDS011;11525;51.152;4.456;2023-02-28T09:28:49;6.20;;;4.43;;
22715;SDS011;11525;51.152;4.456;2023-02-28T09:31:17;5.38;;;4.70;;
22715;SDS011;11525;51.152;4.456;2023-02-28T09:33:49;6.47;;;4.47;;
22715;SDS011;11525;51.152;4.456;2023-02-28T09:36:16;5.53;;;3.50;;
22715;SDS011;11525;51.152;4.456;2023-02-28T09:38:43;3.40;;;3.10;;
22715;SDS011;11525;51.152;4.456;2023-02-28T09:41:13;6.30;;;3.47;;
22715;SDS011;11525;51.152;4.456;2023-02-28T09:43:47;7.28;;;3.28;;
22715;SDS011;11525;51.152;4.456;2023-02-28T09:49:16;3.20;;;2.85;;
22715;SDS011;11525;51.152;4.456;2023-02-28T09:51:58;5.22;;;3.00;;
22715;SDS011;11525;51.152;4.456;2023-02-28T09:54:34;2.85;;;2.45;;
22715;SDS011;11525;51.152;4.456;2023-02-28T10:04:59;3.22;;;2.45;;
22715;SDS011;11525;51.152;4.456;2023-02-28T10:08:00;3.45;;;3.15;;
22715;SDS011;11525;51.152;4.456;2023-02-28T10:10:53;8.23;;;2.60;;
22715;SDS011;11525;51.152;4.456;2023-02-28T10:16:06;2.97;;;2.67;;
22715;SDS011;11525;51.152;4.456;2023-02-28T10:18:56;5.68;;;2.70;;
22715;SDS011;11525;51.152;4.456;2023-02-28T10:21:28;3.42;;;2.85;;
22715;SDS011;11525;51.152;4.456;2023-02-28T10:27:13;3.05;;;2.72;;
22715;SDS011;11525;51.152;4.456;2023-02-28T10:29:47;3.97;;;2.72;;
22715;SDS011;11525;51.152;4.456;2023-02-28T10:32:17;4.57;;;3.08;;
22715;SDS011;11525;51.152;4.456;2023-02-28T10:34:51;3.72;;;2.75;;
22715;SDS011;11525;51.152;4.456;2023-02-28T10:37:22;3.45;;;2.72;;
22715;SDS011;11525;51.152;4.456;2023-02-28T10:39:48;4.18;;;2.70;;
22715;SDS011;11525;51.152;4.456;2023-02-28T10:42:32;3.25;;;2.75;;
22715;SDS011;11525;51.152;4.456;2023-02-28T10:47:39;3.88;;;2.65;;
22715;SDS011;11525;51.152;4.456;2023-02-28T10:56:12;3.97;;;2.67;;
22715;SDS011;11525;51.152;4.456;2023-02-28T10:58:46;3.00;;;2.70;;
22715;SDS011;11525;51.152;4.456;2023-02-28T11:04:00;2.70;;;2.50;;
22715;SDS011;11525;51.152;4.456;2023-02-28T11:06:28;3.05;;;2.58;;
22715;SDS011;11525;51.152;4.456;2023-02-28T11:08:59;7.97;;;2.95;;
22715;SDS011;11525;51.152;4.456;2023-02-28T11:11:29;3.15;;;2.83;;
22715;SDS011;11525;51.152;4.456;2023-02-28T11:14:06;5.15;;;3.10;;
22715;SDS011;11525;51.152;4.456;2023-02-28T11:16:49;5.35;;;2.60;;
22715;SDS011;11525;51.152;4.456;2023-02-28T11:19:27;3.47;;;2.78;;
22715;SDS011;11525;51.152;4.456;2023-02-28T11:22:02;3.55;;;2.80;;
22715;SDS011;11525;51.152;4.456;2023-02-28T11:26:59;9.18;;;3.33;;
22715;SDS011;11525;51.152;4.456;2023-02-28T11:29:29;3.03;;;2.75;;
22715;SDS011;11525;51.152;4.456;2023-02-28T11:32:11;2.83;;;2.63;;
22715;SDS011;11525;51.152;4.456;2023-02-28T11:34:41;2.95;;;2.67;;
22715;SDS011;11525;51.152;4.456;2023-02-28T11:37:11;3.60;;;2.58;;
22715;SDS011;11525;51.152;4.456;2023-02-28T11:39:39;5.85;;;2.95;;
22715;SDS011;11525;51.152;4.456;2023-02-28T11:56:47;3.17;;;2.88;;
22715;SDS011;11525;51.152;4.456;2023-02-28T12:07:59;4.05;;;2.88;;
22715;SDS011;11525;51.152;4.456;2023-02-28T12:10:29;3.13;;;2.83;;
22715;SDS011;11525;51.152;4.456;2023-02-28T12:27:07;5.18;;;3.40;;
22715;SDS011;11525;51.152;4.456;2023-02-28T12:29:43;3.78;;;3.28;;
22715;SDS011;11525;51.152;4.456;2023-02-28T12:35:16;3.80;;;3.40;;
22715;SDS011;11525;51.152;4.456;2023-02-28T12:37:49;3.45;;;3.15;;
22715;SDS011;11525;51.152;4.456;2023-02-28T12:43:19;5.15;;;3.35;;
22715;SDS011;11525;51.152;4.456;2023-02-28T12:45:47;5.55;;;3.13;;
22715;SDS011;11525;51.152;4.456;2023-02-28T12:48:40;3.95;;;3.60;;
22715;SDS011;11525;51.152;4.456;2023-02-28T12:51:11;4.40;;;3.28;;
22715;SDS011;11525;51.152;4.456;2023-02-28T12:56:34;11.18;;;3.55;;
22715;SDS011;11525;51.152;4.456;2023-02-28T12:59:18;4.82;;;3.67;;
22715;SDS011;11525;51.152;4.456;2023-02-28T13:10:02;4.22;;;2.80;;
22715;SDS011;11525;51.152;4.456;2023-02-28T13:12:31;4.00;;;3.60;;
22715;SDS011;11525;51.152;4.456;2023-02-28T13:15:17;5.68;;;3.17;;
22715;SDS011;11525;51.152;4.456;2023-02-28T13:17:48;5.05;;;3.78;;
22715;SDS011;11525;51.152;4.456;2023-02-28T13:20:23;4.75;;;3.67;;
22715;SDS011;11525;51.152;4.456;2023-02-28T13:22:52;5.20;;;3.47;;
22715;SDS011;11525;51.152;4.456;2023-02-28T13:28:13;4.43;;;3.60;;
22715;SDS011;11525;51.152;4.456;2023-02-28T13:31:19;4.60;;;3.70;;
22715;SDS011;11525;51.152;4.456;2023-02-28T13:39:02;6.78;;;4.07;;
22715;SDS011;11525;51.152;4.456;2023-02-28T13:41:48;4.60;;;4.20;;
22715;SDS011;11525;51.152;4.456;2023-02-28T13:44:18;4.75;;;4.07;;
22715;SDS011;11525;51.152;4.456;2023-02-28T13:49:20;4.60;;;3.10;;
22715;SDS011;11525;51.152;4.456;2023-02-28T13:51:51;4.30;;;3.72;;
22715;SDS011;11525;51.152;4.456;2023-02-28T14:06:47;5.95;;;5.10;;
22715;SDS011;11525;51.152;4.456;2023-02-28T14:11:50;5.40;;;4.07;;
22715;SDS011;11525;51.152;4.456;2023-02-28T14:17:01;6.97;;;3.92;;
22715;SDS011;11525;51.152;4.456;2023-02-28T14:19:30;6.10;;;4.20;;
22715;SDS011;11525;51.152;4.456;2023-02-28T14:38:45;7.55;;;4.30;;
22715;SDS011;11525;51.152;4.456;2023-02-28T14:41:23;3.90;;;3.50;;
22715;SDS011;11525;51.152;4.456;2023-02-28T14:44:00;11.90;;;4.10;;
22715;SDS011;11525;51.152;4.456;2023-02-28T14:46:37;5.70;;;3.92;;
22715;SDS011;11525;51.152;4.456;2023-02-28T14:49:05;4.25;;;3.85;;
22715;SDS011;11525;51.152;4.456;2023-02-28T14:51:37;5.57;;;4.47;;
22715;SDS011;11525;51.152;4.456;2023-02-28T14:54:03;4.40;;;3.92;;
22715;SDS011;11525;51.152;4.456;2023-02-28T14:56:34;4.63;;;4.03;;
22715;SDS011;11525;51.152;4.456;2023-02-28T14:59:02;5.18;;;4.13;;
22715;SDS011;11525;51.152;4.456;2023-02-28T15:01:28;6.50;;;4.50;;
22715;SDS011;11525;51.152;4.456;2023-02-28T15:03:59;6.75;;;4.00;;
22715;SDS011;11525;51.152;4.456;2023-02-28T15:06:30;5.45;;;3.75;;
22715;SDS011;11525;51.152;4.456;2023-02-28T15:09:10;5.63;;;4.25;;
22715;SDS011;11525;51.152;4.456;2023-02-28T15:11:39;6.72;;;4.05;;
22715;SDS011;11525;51.152;4.456;2023-02-28T15:14:05;6.25;;;4.35;;
22715;SDS011;11525;51.152;4.456;2023-02-28T15:16:35;5.65;;;4.03;;
22715;SDS011;11525;51.152;4.456;2023-02-28T15:19:06;6.45;;;4.50;;
22715;SDS011;11525;51.152;4.456;2023-02-28T15:21:41;5.70;;;4.38;;
22715;SDS011;11525;51.152;4.456;2023-02-28T15:26:59;6.03;;;4.28;;
22715;SDS011;11525;51.152;4.456;2023-02-28T15:29:28;8.38;;;4.55;;
22715;SDS011;11525;51.152;4.456;2023-02-28T15:32:01;8.07;;;4.35;;
22715;SDS011;11525;51.152;4.456;2023-02-28T15:34:37;7.90;;;4.72;;
22715;SDS011;11525;51.152;4.456;2023-02-28T15:37:52;7.03;;;4.38;;
22715;SDS011;11525;51.152;4.456;2023-02-28T15:39:52;4.70;;;4.07;;
22715;SDS011;11525;51.152;4.456;2023-02-28T15:42:20;4.68;;;4.10;;
22715;SDS011;11525;51.152;4.456;2023-02-28T15:44:52;7.28;;;4.85;;
22715;SDS011;11525;51.152;4.456;2023-02-28T15:47:22;4.38;;;3.92;;
22715;SDS011;11525;51.152;4.456;2023-02-28T15:49:59;5.80;;;4.43;;
22715;SDS011;11525;51.152;4.456;2023-02-28T15:55:14;5.35;;;4.57;;
22715;SDS011;11525;51.152;4.456;2023-02-28T15:57:45;8.30;;;4.70;;
22715;SDS011;11525;51.152;4.456;2023-02-28T16:00:16;5.00;;;4.50;;
22715;SDS011;11525;51.152;4.456;2023-02-28T16:02:45;9.35;;;4.03;;
22715;SDS011;11525;51.152;4.456;2023-02-28T16:07:38;4.30;;;3.90;;
22715;SDS011;11525;51.152;4.456;2023-02-28T16:10:05;6.15;;;4.38;;
22715;SDS011;11525;51.152;4.456;2023-02-28T16:12:35;9.95;;;5.10;;
22715;SDS011;11525;51.152;4.456;2023-02-28T16:15:06;7.00;;;4.97;;
22715;SDS011;11525;51.152;4.456;2023-02-28T16:17:42;4.65;;;4.25;;
22715;SDS011;11525;51.152;4.456;2023-02-28T16:22:39;4.50;;;4.10;;
22715;SDS011;11525;51.152;4.456;2023-02-28T16:25:08;5.57;;;4.38;;
22715;SDS011;11525;51.152;4.456;2023-02-28T16:27:37;5.78;;;4.55;;
22715;SDS011;11525;51.152;4.456;2023-02-28T16:30:04;8.02;;;4.53;;
22715;SDS011;11525;51.152;4.456;2023-02-28T16:32:41;5.63;;;3.97;;
22715;SDS011;11525;51.152;4.456;2023-02-28T16:35:09;7.65;;;4.70;;
22715;SDS011;11525;51.152;4.456;2023-02-28T16:37:35;4.45;;;4.05;;
22715;SDS011;11525;51.152;4.456;2023-02-28T16:40:04;7.03;;;4.63;;
22715;SDS011;11525;51.152;4.456;2023-02-28T16:42:30;5.72;;;4.65;;
22715;SDS011;11525;51.152;4.456;2023-02-28T16:44:57;5.07;;;4.57;;
22715;SDS011;11525;51.152;4.456;2023-02-28T16:47:23;5.95;;;4.47;;
22715;SDS011;11525;51.152;4.456;2023-02-28T16:49:51;4.55;;;4.10;;
22715;SDS011;11525;51.152;4.456;2023-02-28T16:52:17;7.80;;;4.05;;
22715;SDS011;11525;51.152;4.456;2023-02-28T16:54:43;5.63;;;4.70;;
22715;SDS011;11525;51.152;4.456;2023-02-28T16:57:21;5.53;;;4.82;;
22715;SDS011;11525;51.152;4.456;2023-02-28T16:59:48;14.95;;;5.22;;
22715;SDS011;11525;51.152;4.456;2023-02-28T17:02:16;7.47;;;4.88;;
22715;SDS011;11525;51.152;4.456;2023-02-28T17:04:44;6.97;;;5.00;;
22715;SDS011;11525;51.152;4.456;2023-02-28T17:07:11;5.93;;;5.22;;
22715;SDS011;11525;51.152;4.456;2023-02-28T17:09:39;6.80;;;5.07;;
22715;SDS011;11525;51.152;4.456;2023-02-28T17:12:05;5.85;;;5.18;;
22715;SDS011;11525;51.152;4.456;2023-02-28T17:14:32;11.52;;;5.85;;
22715;SDS011;11525;51.152;4.456;2023-02-28T17:16:58;6.90;;;5.47;;
22715;SDS011;11525;51.152;4.456;2023-02-28T17:19:24;10.88;;;5.75;;
22715;SDS011;11525;51.152;4.456;2023-02-28T17:21:50;5.85;;;5.00;;
22715;SDS011;11525;51.152;4.456;2023-02-28T17:24:16;10.07;;;6.18;;
22715;SDS011;11525;51.152;4.456;2023-02-28T17:26:42;10.10;;;5.93;;
22715;SDS011;11525;51.152;4.456;2023-02-28T17:29:13;6.88;;;5.43;;
22715;SDS011;11525;51.152;4.456;2023-02-28T17:31:46;9.73;;;6.07;;
22715;SDS011;11525;51.152;4.456;2023-02-28T17:34:12;7.40;;;5.28;;
22715;SDS011;11525;51.152;4.456;2023-02-28T17:36:46;6.97;;;5.32;;